Time;durP1;ratioP1;P1;durP2;ratioP2;P2;SDS_P1;SDS_P2;PMS_P1;PMS_P2;Temp;Humidity;BMP_temperature;BMP_pressure;BME280_temperature;BME280_humidity;BME280_pressure;Samples;Min_cycle;Max_cycle;Signal;HPM_P1;HPM_P2
2023/03/19 00:00:52;;;;;;;6.40;2.20;;;;;;;13.80;78.38;100683.13;5071101;28;20392;-64
2023/03/19 00:03:20;;;;;;;6.30;1.70;;;;;;;13.70;78.44;100684.34;5077119;28;20057;-64
2023/03/19 00:05:53;;;;;;;6.43;1.75;;;;;;;13.61;79.35;100691.06;5077022;28;20053;-66
2023/03/19 00:08:21;;;;;;;4.40;1.65;;;;;;;13.63;79.32;100689.59;5075449;28;20044;-65
2023/03/19 00:10:49;;;;;;;8.45;1.90;;;;;;;13.49;79.52;100684.28;5076566;28;20052;-65
2023/03/19 00:13:17;;;;;;;5.50;1.88;;;;;;;13.51;79.93;100689.50;5076911;28;20048;-65
2023/03/19 00:15:46;;;;;;;5.10;1.65;;;;;;;13.52;79.44;100694.72;5077779;28;20063;-64
2023/03/19 00:18:13;;;;;;;6.68;2.15;;;;;;;13.76;79.03;100693.25;5076969;28;20503;-64
2023/03/19 00:20:41;;;;;;;7.18;1.88;;;;;;;13.80;78.38;100686.72;5077333;28;20052;-64
2023/03/19 00:23:08;;;;;;;5.13;1.80;;;;;;;13.72;78.34;100689.56;5061801;28;20060;-64
2023/03/19 00:25:36;;;;;;;4.82;1.70;;;;;;;13.71;78.21;100696.22;5078057;28;20044;-65
2023/03/19 00:28:03;;;;;;;7.63;2.15;;;;;;;13.48;78.81;100693.75;5073419;28;20037;-64
2023/03/19 00:30:30;;;;;;;6.88;1.98;;;;;;;13.14;80.71;100701.38;5061012;28;20075;-66
2023/03/19 00:32:57;;;;;;;5.78;1.85;;;;;;;13.23;80.81;100699.41;5079021;28;20067;-64
2023/03/19 00:35:25;;;;;;;5.68;2.17;;;;;;;13.24;80.81;100710.13;5077823;28;20067;-64
2023/03/19 00:37:54;;;;;;;6.10;2.20;;;;;;;13.19;80.88;100699.25;5075406;28;20053;-64
2023/03/19 00:40:21;;;;;;;6.65;2.00;;;;;;;13.20;80.77;100711.09;5063583;28;20059;-65
2023/03/19 00:42:49;;;;;;;6.75;1.90;;;;;;;13.33;80.35;100710.91;5078757;28;20055;-63
2023/03/19 00:45:16;;;;;;;6.65;1.90;;;;;;;13.38;79.98;100705.19;5077529;28;20049;-65
2023/03/19 00:47:44;;;;;;;6.90;2.03;;;;;;;13.51;79.54;100714.41;5075983;28;20044;-64
2023/03/19 00:50:12;;;;;;;5.93;2.20;;;;;;;13.41;79.54;100709.22;5059062;28;20045;-64
2023/03/19 00:52:40;;;;;;;7.68;2.13;;;;;;;13.29;79.59;100709.94;5056788;28;20044;-64
2023/03/19 00:55:08;;;;;;;5.25;1.80;;;;;;;13.70;77.89;100714.81;5052524;28;20049;-67
2023/03/19 00:57:35;;;;;;;6.18;2.35;;;;;;;13.44;78.72;100708.59;5057506;28;20389;-64
2023/03/19 01:00:04;;;;;;;7.45;2.50;;;;;;;13.40;79.21;100715.91;5073630;28;20037;-63
2023/03/19 01:02:31;;;;;;;6.82;2.53;;;;;;;13.51;79.18;100714.41;5076934;28;20538;-64
2023/03/19 01:04:58;;;;;;;6.95;2.08;;;;;;;13.52;78.98;100716.03;5076950;28;20056;-64
2023/03/19 01:07:26;;;;;;;6.43;2.30;;;;;;;13.25;79.64;100722.81;5077546;28;20056;-64
2023/03/19 01:09:55;;;;;;;7.65;2.10;;;;;;;13.08;80.59;100722.03;5056377;28;20409;-64
2023/03/19 01:12:22;;;;;;;6.68;2.63;;;;;;;12.97;80.93;100721.56;5074588;28;20052;-64
2023/03/19 01:14:50;;;;;;;7.18;2.20;;;;;;;13.18;80.56;100732.78;5076142;28;20075;-64
2023/03/19 01:17:17;;;;;;;6.30;2.60;;;;;;;13.14;80.57;100734.56;5077144;28;20048;-64
2023/03/19 01:19:44;;;;;;;5.40;2.10;;;;;;;13.17;81.06;100740.25;5077762;28;20052;-64
2023/03/19 01:22:13;;;;;;;6.97;2.15;;;;;;;13.26;80.34;100729.16;5077533;28;20045;-64
2023/03/19 01:24:44;;;;;;;6.35;2.67;;;;;;;13.18;80.25;100728.03;5075708;28;20060;-64
2023/03/19 01:27:12;;;;;;;6.22;2.60;;;;;;;13.09;80.91;100727.25;5075583;28;20063;-64
2023/03/19 01:29:39;;;;;;;6.60;2.05;;;;;;;13.06;80.64;100730.66;5060437;28;20096;-64
2023/03/19 01:32:18;;;;;;;5.53;2.23;;;;;;;13.14;80.61;100731.81;5075767;28;20051;-64
2023/03/19 01:35:04;;;;;;;4.88;2.03;;;;;;;13.26;80.29;100735.50;5076125;28;20302;-64
2023/03/19 01:37:31;;;;;;;5.05;2.28;;;;;;;13.20;80.23;100733.22;5074112;28;20059;-64
2023/03/19 01:39:59;;;;;;;6.00;2.55;;;;;;;13.05;80.86;100740.13;5078390;28;20048;-63
2023/03/19 01:42:26;;;;;;;7.30;2.55;;;;;;;13.19;79.88;100737.97;5075732;28;20060;-64
2023/03/19 01:45:37;;;;;;;7.80;2.40;;;;;;;12.96;81.00;100733.75;5067351;28;20056;-64
2023/03/19 01:48:48;;;;;;;6.47;2.40;;;;;;;13.02;81.18;100732.47;5077262;28;20059;-63
2023/03/19 01:51:20;;;;;;;5.40;2.40;;;;;;;13.02;80.72;100735.22;5075271;28;20053;-63
2023/03/19 01:54:00;;;;;;;5.93;2.53;;;;;;;13.04;81.55;100734.94;5077203;28;20048;-63
2023/03/19 01:56:44;;;;;;;5.18;2.30;;;;;;;13.11;81.17;100733.25;5060052;28;20052;-64
2023/03/19 01:59:50;;;;;;;8.95;2.38;;;;;;;13.13;82.01;100739.28;5034694;28;20054;-63
2023/03/19 02:02:37;;;;;;;5.75;2.03;;;;;;;13.14;80.98;100727.09;5072303;28;20064;-64
2023/03/19 02:05:24;;;;;;;9.10;2.88;;;;;;;12.93;80.54;100726.13;5076200;28;20118;-64
2023/03/19 02:07:55;;;;;;;7.00;2.72;;;;;;;13.07;80.96;100729.56;5045238;28;20053;-64
2023/03/19 02:10:23;;;;;;;4.00;2.20;;;;;;;13.11;80.45;100721.41;5058626;28;20041;-65
2023/03/19 02:12:51;;;;;;;6.03;2.58;;;;;;;12.84;81.02;100714.28;5077101;28;20048;-64
2023/03/19 02:15:18;;;;;;;8.60;2.75;;;;;;;13.09;81.09;100709.84;5076631;28;20052;-64
2023/03/19 02:17:46;;;;;;;10.40;2.67;;;;;;;12.95;80.86;100710.03;5074868;28;20212;-64
2023/03/19 02:20:23;;;;;;;7.53;2.55;;;;;;;12.70;81.85;100707.31;5076024;28;20049;-64
2023/03/19 02:23:08;;;;;;;8.68;2.53;;;;;;;12.78;82.27;100698.22;5059368;28;20399;-65
2023/03/19 02:25:45;;;;;;;7.60;2.53;;;;;;;12.83;82.07;100703.56;5072873;28;20055;-64
2023/03/19 02:28:18;;;;;;;5.85;2.45;;;;;;;12.77;81.82;100708.44;5061990;28;20059;-63
2023/03/19 02:30:49;;;;;;;10.23;2.83;;;;;;;12.88;81.70;100712.50;5056492;28;20048;-63
2023/03/19 02:33:17;;;;;;;5.35;2.20;;;;;;;12.72;82.19;100708.63;5055522;28;20064;-65
2023/03/19 02:35:46;;;;;;;7.95;2.40;;;;;;;12.79;82.84;100716.41;5070030;28;20052;-64
2023/03/19 02:38:16;;;;;;;9.60;2.33;;;;;;;12.94;81.59;100715.88;5072445;28;20048;-64
2023/03/19 02:40:48;;;;;;;6.65;2.65;;;;;;;12.82;81.70;100719.31;5041323;28;20049;-64
2023/03/19 02:43:15;;;;;;;7.18;3.15;;;;;;;12.90;81.90;100725.97;5077421;28;20053;-64
2023/03/19 02:45:43;;;;;;;8.07;3.03;;;;;;;12.90;81.66;100724.00;5074215;28;20048;-64
2023/03/19 02:48:10;;;;;;;8.93;2.72;;;;;;;12.92;81.20;100724.50;5075984;28;20056;-64
2023/03/19 02:50:38;;;;;;;6.30;2.90;;;;;;;12.79;81.73;100721.94;5074064;28;20048;-64
2023/03/19 02:53:05;;;;;;;7.35;3.20;;;;;;;12.73;81.93;100721.28;5075671;28;20055;-64
2023/03/19 02:55:33;;;;;;;9.13;3.88;;;;;;;12.72;81.73;100722.44;5072758;28;20048;-64
2023/03/19 02:58:00;;;;;;;12.73;4.50;;;;;;;12.72;81.55;100733.50;5076990;28;20369;-63
2023/03/19 03:00:28;;;;;;;8.07;4.20;;;;;;;12.66;81.90;100732.03;5057752;28;20044;-64
2023/03/19 03:02:56;;;;;;;9.32;4.28;;;;;;;12.85;81.87;100734.44;5074645;28;20415;-64
2023/03/19 03:05:24;;;;;;;13.15;4.75;;;;;;;12.70;82.03;100735.75;5075754;28;20111;-64
2023/03/19 03:07:52;;;;;;;9.25;3.35;;;;;;;12.57;82.58;100730.41;5058133;28;20057;-63
2023/03/19 03:10:19;;;;;;;7.57;3.65;;;;;;;12.64;81.89;100727.97;5055933;28;20045;-64
2023/03/19 03:12:47;;;;;;;7.80;3.33;;;;;;;12.53;82.83;100744.06;5075226;28;20044;-64
2023/03/19 03:15:15;;;;;;;7.75;3.17;;;;;;;12.55;82.78;100747.31;5074680;28;20048;-63
2023/03/19 03:17:44;;;;;;;6.15;3.10;;;;;;;12.61;82.18;100746.00;5074348;28;20048;-64
2023/03/19 03:20:14;;;;;;;8.80;3.53;;;;;;;12.68;82.29;100745.50;5076385;28;20040;-64
2023/03/19 03:22:41;;;;;;;7.43;2.85;;;;;;;12.50;82.42;100741.94;5074872;28;20048;-64
2023/03/19 03:25:09;;;;;;;7.88;2.97;;;;;;;12.35;83.37;100742.44;5057973;28;20048;-64
2023/03/19 03:27:37;;;;;;;6.18;3.13;;;;;;;12.29;84.06;100741.78;5074000;28;20059;-64
2023/03/19 03:30:07;;;;;;;6.68;3.33;;;;;;;12.45;83.41;100742.94;5075280;28;20463;-64
2023/03/19 03:32:35;;;;;;;5.95;2.97;;;;;;;12.43;83.24;100736.09;5073164;28;20048;-67
2023/03/19 03:35:04;;;;;;;10.63;3.47;;;;;;;12.48;83.21;100735.94;5072559;28;20057;-64
2023/03/19 03:37:31;;;;;;;8.43;3.40;;;;;;;12.39;83.42;100743.41;5072652;28;20499;-64
2023/03/19 03:39:59;;;;;;;9.65;3.50;;;;;;;12.32;83.84;100737.56;5075585;28;20097;-64
2023/03/19 03:42:26;;;;;;;7.65;3.00;;;;;;;12.37;83.45;100748.44;5072660;28;20400;-64
2023/03/19 03:44:53;;;;;;;8.43;3.45;;;;;;;12.53;82.85;100744.06;5073450;28;20067;-68
2023/03/19 03:47:21;;;;;;;6.47;2.60;;;;;;;12.54;82.70;100745.69;5071320;28;20044;-64
2023/03/19 03:49:48;;;;;;;7.82;3.15;;;;;;;12.39;83.16;100760.00;5075936;28;20396;-68
2023/03/19 03:52:16;;;;;;;5.00;2.80;;;;;;;12.38;84.24;100744.53;5073801;28;20051;-64
2023/03/19 03:54:43;;;;;;;9.15;3.17;;;;;;;12.42;84.66;100748.28;5072869;28;20060;-64
2023/03/19 03:57:11;;;;;;;7.75;3.55;;;;;;;12.45;85.26;100745.69;5069288;28;20057;-55
2023/03/19 03:59:38;;;;;;;8.90;3.50;;;;;;;12.39;85.47;100744.25;5075023;28;20063;-56
2023/03/19 04:02:06;;;;;;;10.07;3.38;;;;;;;12.39;85.82;100757.22;5072683;28;20060;-58
2023/03/19 04:04:33;;;;;;;6.80;3.40;;;;;;;12.46;86.03;100761.13;5074029;28;20056;-58
2023/03/19 04:07:01;;;;;;;7.45;3.50;;;;;;;12.36;86.26;100755.13;5071960;28;20045;-57
2023/03/19 04:09:40;;;;;;;6.28;3.42;;;;;;;12.32;86.83;100767.94;5074756;28;20056;-58
2023/03/19 04:12:08;;;;;;;9.82;3.40;;;;;;;12.25;87.58;100764.84;5073156;28;20522;-56
2023/03/19 04:14:36;;;;;;;7.28;3.30;;;;;;;12.34;88.44;100755.41;5074546;28;20071;-55
2023/03/19 04:17:04;;;;;;;10.30;3.20;;;;;;;12.31;88.60;100761.59;5072256;28;20048;-56
2023/03/19 04:19:31;;;;;;;8.32;3.33;;;;;;;12.21;89.76;100759.16;5074977;28;20048;-57
2023/03/19 04:21:58;;;;;;;7.05;3.40;;;;;;;12.23;89.78;100756.91;5072492;28;20052;-57
2023/03/19 04:24:26;;;;;;;8.52;3.65;;;;;;;12.31;89.78;100752.50;5073353;28;20700;-56
2023/03/19 04:26:53;;;;;;;8.38;3.47;;;;;;;12.41;89.09;100758.50;5072989;28;20059;-57
2023/03/19 04:29:21;;;;;;;7.03;3.90;;;;;;;12.33;89.32;100756.56;5074127;28;20055;-56
2023/03/19 04:31:50;;;;;;;12.15;3.80;;;;;;;12.13;89.54;100762.72;5069145;28;20511;-56
2023/03/19 04:34:18;;;;;;;8.35;3.60;;;;;;;12.12;90.06;100766.63;5073586;28;20067;-57
2023/03/19 04:36:46;;;;;;;8.25;3.78;;;;;;;12.13;90.21;100768.22;5069377;28;20487;-59
2023/03/19 04:39:13;;;;;;;7.30;3.70;;;;;;;12.11;90.42;100765.00;5060841;28;20049;-58
2023/03/19 04:41:41;;;;;;;7.53;3.83;;;;;;;12.18;89.55;100765.34;5041036;28;20515;-58
2023/03/19 04:44:24;;;;;;;8.18;3.80;;;;;;;11.97;90.43;100767.09;5062689;28;20052;-56
2023/03/19 04:46:52;;;;;;;8.35;4.32;;;;;;;11.92;90.81;100763.66;5055985;28;20048;-57
2023/03/19 04:49:21;;;;;;;12.27;5.03;;;;;;;11.92;91.25;100764.47;5054263;28;20056;-58
2023/03/19 04:51:50;;;;;;;7.70;4.57;;;;;;;12.10;90.96;100768.88;5056107;28;20456;-59
2023/03/19 04:54:17;;;;;;;9.07;4.35;;;;;;;12.22;89.58;100766.28;5041854;28;20055;-59
2023/03/19 04:56:45;;;;;;;7.38;4.45;;;;;;;12.29;89.88;100769.41;5068888;28;20057;-57
2023/03/19 04:59:12;;;;;;;7.70;3.65;;;;;;;12.33;89.66;100773.16;5078789;28;20044;-60
2023/03/19 05:01:39;;;;;;;11.65;4.28;;;;;;;12.42;88.86;100781.44;5042726;28;20119;-57
2023/03/19 05:04:10;;;;;;;11.13;4.50;;;;;;;12.63;88.20;100776.91;5057223;28;20049;-56
2023/03/19 05:06:38;;;;;;;9.13;4.18;;;;;;;12.42;87.63;100779.50;5068374;28;20056;-57
2023/03/19 05:09:06;;;;;;;11.30;4.60;;;;;;;12.37;88.35;100785.19;5059162;28;20052;-58
2023/03/19 05:11:34;;;;;;;8.98;5.00;;;;;;;12.17;89.07;100777.50;5067727;28;20051;-57
2023/03/19 05:14:04;;;;;;;10.95;5.68;;;;;;;12.14;89.75;100780.91;5046677;28;20061;-58
2023/03/19 05:16:44;;;;;;;9.60;5.35;;;;;;;12.02;89.95;100785.44;5069588;28;20052;-59
2023/03/19 05:19:11;;;;;;;10.60;5.95;;;;;;;12.13;90.01;100790.31;5056093;28;20056;-58
2023/03/19 05:21:39;;;;;;;12.43;5.63;;;;;;;11.98;90.17;100796.31;5051390;28;20065;-59
2023/03/19 05:24:07;;;;;;;14.93;6.80;;;;;;;11.87;91.53;100797.72;5077726;28;20081;-55
2023/03/19 05:26:36;;;;;;;12.70;6.90;;;;;;;11.82;92.37;100799.84;5076565;28;20058;-56
2023/03/19 05:29:30;;;;;;;13.32;7.22;;;;;;;11.75;93.11;100805.00;5054913;28;20080;-57
2023/03/19 05:32:10;;;;;;;;;;;;;;;11.65;92.96;100819.88;5067378;28;20045;-58
2023/03/19 05:34:38;;;;;;;14.00;7.00;;;;;;;11.72;93.00;100819.41;5077285;28;20248;-55
2023/03/19 05:37:07;;;;;;;15.80;7.75;;;;;;;11.82;93.01;100802.59;5057471;28;20056;-58
2023/03/19 05:39:35;;;;;;;17.52;7.85;;;;;;;11.97;91.57;100808.50;5061074;28;20044;-58
2023/03/19 05:42:06;;;;;;;16.75;7.35;;;;;;;11.98;91.26;100809.28;5067690;28;20045;-59
2023/03/19 05:44:34;;;;;;;15.02;7.32;;;;;;;12.02;90.88;100813.88;5046430;28;20056;-56
2023/03/19 05:47:12;;;;;;;15.23;6.78;;;;;;;12.08;90.88;100817.28;5074539;28;20051;-57
2023/03/19 05:49:44;;;;;;;12.90;7.32;;;;;;;12.00;90.72;100818.06;5059970;28;20056;-56
2023/03/19 05:52:12;;;;;;;14.77;6.65;;;;;;;12.17;90.70;100829.16;5072150;28;20055;-57
2023/03/19 05:54:40;;;;;;;15.43;7.28;;;;;;;12.20;90.69;100832.09;5073900;28;20049;-56
2023/03/19 05:57:26;;;;;;;12.80;7.15;;;;;;;12.16;89.30;100835.81;5075368;28;20111;-55
2023/03/19 06:00:20;;;;;;;15.20;7.38;;;;;;;11.96;89.92;100828.13;5069478;28;20419;-53
2023/03/19 06:02:48;;;;;;;13.68;7.50;;;;;;;11.93;90.75;100831.50;5074035;28;20048;-56
2023/03/19 06:05:24;;;;;;;14.02;7.60;;;;;;;11.93;91.07;100834.28;5076091;28;20051;-53
2023/03/19 06:07:55;;;;;;;14.15;7.18;;;;;;;12.11;90.04;100830.44;5067032;28;20044;-55
2023/03/19 06:10:35;;;;;;;13.82;7.63;;;;;;;12.04;90.01;100849.44;5059710;28;20057;-56
2023/03/19 06:13:07;;;;;;;14.73;8.10;;;;;;;11.83;91.31;100848.38;5076476;28;20048;-55
2023/03/19 06:15:40;;;;;;;14.10;8.13;;;;;;;12.09;90.88;100843.75;5059778;28;20052;-58
2023/03/19 06:18:37;;;;;;;16.38;8.30;;;;;;;12.12;90.29;100848.63;5058424;28;20061;-64
2023/03/19 06:21:08;;;;;;;16.58;7.95;;;;;;;12.09;90.24;100850.09;5058361;28;20396;-64
2023/03/19 06:23:36;;;;;;;12.57;8.13;;;;;;;12.07;90.38;100846.84;5059926;28;20059;-64
2023/03/19 06:26:05;;;;;;;13.95;7.82;;;;;;;12.06;90.08;100861.78;5073994;28;20052;-59
2023/03/19 06:28:43;;;;;;;16.33;8.13;;;;;;;12.17;89.25;100859.53;5074731;28;20053;-64
2023/03/19 06:31:13;;;;;;;15.10;7.35;;;;;;;12.27;88.41;100864.78;5073386;28;20047;-59
2023/03/19 06:33:57;;;;;;;17.80;7.93;;;;;;;12.22;89.01;100876.75;5060841;28;20047;-56
2023/03/19 06:36:31;;;;;;;14.98;7.30;;;;;;;12.19;88.76;100882.13;5074538;28;20514;-57
2023/03/19 06:38:58;;;;;;;13.18;7.75;;;;;;;12.09;90.06;100879.66;5060383;28;20081;-54
2023/03/19 06:41:26;;;;;;;12.65;7.07;;;;;;;12.06;89.78;100883.06;5063584;28;20048;-57
2023/03/19 06:44:00;;;;;;;12.07;7.43;;;;;;;12.06;89.71;100883.88;5056510;28;20049;-55
2023/03/19 06:46:27;;;;;;;11.88;7.45;;;;;;;11.60;91.71;100882.63;5066493;28;20051;-57
2023/03/19 06:48:55;;;;;;;14.85;7.80;;;;;;;11.60;92.96;100877.94;5074729;28;20051;-64
2023/03/19 06:51:23;;;;;;;11.77;7.60;;;;;;;11.84;92.81;100889.44;5073138;28;20428;-63
2023/03/19 06:53:50;;;;;;;14.55;8.05;;;;;;;11.90;91.95;100895.66;5057340;28;20044;-64
2023/03/19 06:56:17;;;;;;;15.65;8.43;;;;;;;11.81;92.96;100898.38;5064948;28;20460;-56
2023/03/19 06:58:45;;;;;;;18.33;8.27;;;;;;;11.84;92.74;100894.16;5076117;28;20052;-63
2023/03/19 07:01:12;;;;;;;15.07;7.70;;;;;;;11.85;93.09;100887.50;5056329;28;20059;-64
2023/03/19 07:03:40;;;;;;;12.00;8.30;;;;;;;11.99;92.94;100894.56;5073741;28;20526;-56
2023/03/19 07:06:07;;;;;;;15.40;8.20;;;;;;;11.72;92.87;100889.22;5075271;28;20496;-59
2023/03/19 07:08:35;;;;;;;14.25;8.57;;;;;;;11.79;92.93;100892.34;5074949;28;20055;-57
2023/03/19 07:11:04;;;;;;;13.02;7.65;;;;;;;11.99;92.31;100897.34;5074209;28;20667;-65
2023/03/19 07:13:31;;;;;;;13.98;8.13;;;;;;;11.95;92.09;100899.09;5072844;28;20075;-64
2023/03/19 07:15:59;;;;;;;13.00;7.65;;;;;;;12.13;91.18;100898.00;5073462;28;20134;-58
2023/03/19 07:18:27;;;;;;;14.82;8.02;;;;;;;12.23;89.72;100896.91;5072342;28;20052;-57
2023/03/19 07:20:54;;;;;;;12.57;7.78;;;;;;;12.12;90.09;100898.34;5073476;28;20456;-65
2023/03/19 07:23:22;;;;;;;13.40;7.38;;;;;;;12.01;90.93;100903.31;5077118;28;20056;-57
2023/03/19 07:25:49;;;;;;;11.23;7.40;;;;;;;11.91;91.45;100906.38;5068151;28;20045;-59
2023/03/19 07:28:16;;;;;;;15.63;7.32;;;;;;;11.90;91.70;100904.75;5072528;28;20052;-63
2023/03/19 07:30:44;;;;;;;12.02;7.32;;;;;;;11.97;90.92;100907.03;5060628;28;20492;-64
2023/03/19 07:33:11;;;;;;;11.05;7.20;;;;;;;12.15;90.10;100903.25;5075364;28;20051;-67
2023/03/19 07:35:40;;;;;;;10.15;6.13;;;;;;;12.25;88.41;100898.25;5073077;28;20055;-57
2023/03/19 07:38:08;;;;;;;10.52;5.95;;;;;;;12.09;88.24;100899.81;5063018;28;20053;-64
2023/03/19 07:40:35;;;;;;;11.20;6.20;;;;;;;12.35;87.80;100905.41;5066011;28;20059;-65
2023/03/19 07:43:03;;;;;;;12.68;5.97;;;;;;;12.28;86.73;100903.13;5076874;28;20045;-58
2023/03/19 07:45:30;;;;;;;13.13;6.18;;;;;;;12.02;87.58;100901.38;5075950;28;20052;-57
2023/03/19 07:48:00;;;;;;;14.27;5.85;;;;;;;12.27;87.44;100895.16;5075631;28;20055;-58
2023/03/19 07:50:29;;;;;;;12.63;6.07;;;;;;;12.32;86.96;100908.81;5061170;28;20053;-56
2023/03/19 07:52:57;;;;;;;10.30;6.10;;;;;;;12.38;86.87;100911.09;5075945;28;20059;-63
2023/03/19 07:55:24;;;;;;;11.90;5.78;;;;;;;12.48;85.90;100908.03;5062093;28;20049;-53
2023/03/19 07:57:52;;;;;;;10.02;5.57;;;;;;;12.42;85.96;100903.00;5069782;28;20045;-54
2023/03/19 08:00:19;;;;;;;9.02;5.20;;;;;;;12.26;85.57;100907.31;5054146;28;20044;-58
2023/03/19 08:02:47;;;;;;;11.00;5.53;;;;;;;12.21;87.06;100907.47;5068602;28;20048;-65
2023/03/19 08:05:15;;;;;;;12.90;5.20;;;;;;;12.32;86.43;100917.94;5048658;28;20065;-65
2023/03/19 08:07:43;;;;;;;11.85;5.25;;;;;;;12.30;85.37;100922.94;5072806;28;20048;-67
2023/03/19 08:10:11;;;;;;;13.82;5.45;;;;;;;12.26;85.63;100912.84;5067614;28;20048;-66
2023/03/19 08:12:40;;;;;;;12.90;5.40;;;;;;;12.57;84.86;100913.56;5072029;28;20095;-66
2023/03/19 08:15:09;;;;;;;11.43;4.75;;;;;;;12.97;83.75;100904.03;5067827;28;20040;-64
2023/03/19 08:17:37;;;;;;;8.67;4.73;;;;;;;12.66;82.00;100914.41;5061775;28;20071;-65
2023/03/19 08:20:09;;;;;;;10.52;4.32;;;;;;;12.60;84.39;100914.91;5060964;28;20052;-66
2023/03/19 08:22:37;;;;;;;11.20;4.68;;;;;;;12.86;83.80;100921.28;5073553;28;20043;-65
2023/03/19 08:25:05;;;;;;;11.75;4.18;;;;;;;12.44;81.13;100923.66;5059796;28;20536;-64
2023/03/19 08:27:34;;;;;;;11.63;4.25;;;;;;;12.54;83.59;100916.16;5065030;28;20048;-62
2023/03/19 08:30:03;;;;;;;8.90;3.30;;;;;;;12.72;84.06;100918.66;5047141;28;20056;-63
2023/03/19 08:32:30;;;;;;;9.52;3.58;;;;;;;12.74;82.41;100918.34;5075204;28;20052;-64
2023/03/19 08:34:58;;;;;;;7.75;3.38;;;;;;;12.79;82.25;100919.00;5064500;28;20053;-63
2023/03/19 08:37:25;;;;;;;10.20;3.60;;;;;;;13.05;81.23;100922.63;5077278;28;20053;-63
2023/03/19 08:39:52;;;;;;;10.90;3.85;;;;;;;12.98;80.26;100929.75;5070457;28;20415;-63
2023/03/19 08:42:21;;;;;;;13.55;3.80;;;;;;;13.13;79.48;100943.13;5070315;28;20514;-63
2023/03/19 08:44:49;;;;;;;17.20;4.60;;;;;;;13.57;78.74;100945.53;5077593;28;20045;-65
2023/03/19 08:47:16;;;;;;;12.70;4.20;;;;;;;13.12;79.10;100952.56;5075875;28;20064;-63
2023/03/19 08:49:44;;;;;;;12.77;4.15;;;;;;;13.34;78.59;100955.16;5074673;28;20530;-62
2023/03/19 08:52:11;;;;;;;11.52;4.10;;;;;;;13.34;78.28;100963.47;5077191;28;20048;-63
2023/03/19 08:54:39;;;;;;;12.75;4.28;;;;;;;13.02;78.32;100977.78;5076357;28;20067;-64
2023/03/19 08:57:06;;;;;;;13.55;4.25;;;;;;;12.44;80.92;100976.13;5070752;28;20049;-62
2023/03/19 08:59:33;;;;;;;12.98;4.50;;;;;;;12.23;81.71;100982.53;5063061;28;20064;-63
2023/03/19 09:02:01;;;;;;;13.48;4.65;;;;;;;12.08;83.82;100992.03;5077779;28;20048;-62
2023/03/19 09:04:28;;;;;;;10.35;4.35;;;;;;;12.31;82.25;100998.31;5077470;28;20044;-63
2023/03/19 09:06:55;;;;;;;11.25;4.13;;;;;;;12.01;83.09;100999.94;5071997;28;20045;-64
2023/03/19 09:09:23;;;;;;;18.25;4.03;;;;;;;12.17;82.79;101003.94;5064892;28;20055;-66
2023/03/19 09:11:50;;;;;;;8.63;3.10;;;;;;;12.59;80.70;101010.78;5075990;28;20491;-63
2023/03/19 09:14:19;;;;;;;9.93;3.70;;;;;;;12.28;79.42;101010.84;5078217;28;20380;-64
2023/03/19 09:16:46;;;;;;;7.30;3.60;;;;;;;11.45;83.93;101010.75;5068731;28;20059;-63
2023/03/19 09:19:14;;;;;;;10.18;3.58;;;;;;;11.67;84.34;101018.22;5078822;28;20049;-64
2023/03/19 09:21:41;;;;;;;9.07;3.15;;;;;;;11.86;81.76;101021.59;5077572;28;20059;-62
2023/03/19 09:24:09;;;;;;;10.52;3.63;;;;;;;11.76;82.81;101017.19;5074515;28;20055;-63
2023/03/19 09:26:36;;;;;;;7.10;3.00;;;;;;;11.96;81.94;101013.88;5068088;28;20048;-65
2023/03/19 09:29:03;;;;;;;8.85;3.38;;;;;;;12.21;81.57;101015.16;5079721;28;20492;-63
2023/03/19 09:31:31;;;;;;;12.80;3.53;;;;;;;12.10;81.85;101006.34;5074322;28;20044;-63
2023/03/19 09:33:58;;;;;;;14.05;3.95;;;;;;;12.34;81.59;101011.50;5077897;28;20052;-63
2023/03/19 09:36:25;;;;;;;12.25;4.25;;;;;;;12.27;81.15;101016.69;5075160;28;20060;-63
2023/03/19 09:38:56;;;;;;;11.60;4.45;;;;;;;12.30;81.61;101019.63;5071306;28;20051;-63
2023/03/19 09:41:42;;;;;;;;;;;;;;;12.56;81.06;101027.19;5076905;28;20063;-64
2023/03/19 09:44:13;;;;;;;10.43;4.00;;;;;;;12.56;79.00;101024.44;5086298;28;19920;-64
2023/03/19 09:46:45;;;;;;;11.88;3.67;;;;;;;12.57;79.73;101021.34;5059144;28;20055;-63
2023/03/19 09:49:21;;;;;;;8.65;3.55;;;;;;;12.76;79.10;101019.13;5067166;28;20036;-64
2023/03/19 09:52:04;;;;;;;9.05;3.63;;;;;;;12.57;78.92;101021.34;5075728;28;20048;-65
2023/03/19 09:55:03;;;;;;;7.57;3.17;;;;;;;12.51;78.53;101033.69;5071923;28;20476;-63
2023/03/19 09:57:38;;;;;;;7.60;3.53;;;;;;;11.98;80.09;101030.97;5073491;28;20053;-65
2023/03/19 10:00:26;;;;;;;9.48;3.65;;;;;;;12.14;80.76;101034.13;5076972;28;20287;-65
2023/03/19 10:03:03;;;;;;;6.75;2.65;;;;;;;12.39;79.88;101036.22;5071269;28;20052;-65
2023/03/19 10:05:44;;;;;;;8.85;2.85;;;;;;;12.63;79.92;101041.38;5075342;28;20053;-64
2023/03/19 10:08:41;;;;;;;5.70;2.38;;;;;;;12.45;80.33;101040.47;5076949;28;20048;-64
2023/03/19 10:11:48;;;;;;;7.55;2.70;;;;;;;12.28;82.34;101043.16;5064034;28;20044;-65
2023/03/19 10:14:21;;;;;;;7.00;2.95;;;;;;;12.31;81.76;101043.34;5070278;28;20403;-67
2023/03/19 10:16:50;;;;;;;6.07;2.88;;;;;;;11.53;87.31;101045.84;5074512;28;20048;-65
2023/03/19 10:19:22;;;;;;;7.95;3.50;;;;;;;11.35;91.52;101057.84;5055018;28;20049;-66
2023/03/19 10:21:55;;;;;;;7.47;3.03;;;;;;;10.72;95.19;101074.34;5069702;28;20178;-66
2023/03/19 10:24:24;;;;;;;8.40;3.08;;;;;;;10.40;95.40;101081.88;5076482;28;20052;-64
2023/03/19 10:26:57;;;;;;;8.90;4.15;;;;;;;10.16;97.64;101068.25;5074484;28;20059;-65
2023/03/19 10:29:25;;;;;;;8.35;4.18;;;;;;;10.26;100.00;101075.50;5056463;28;20056;-67
2023/03/19 10:32:07;;;;;;;10.50;5.25;;;;;;;10.38;100.00;101084.91;5068244;28;20048;-65
2023/03/19 10:34:36;;;;;;;10.63;5.65;;;;;;;10.68;100.00;101084.34;5061328;28;20044;-64
2023/03/19 10:37:06;;;;;;;10.80;5.60;;;;;;;10.80;97.79;101089.34;5054864;28;20049;-66
2023/03/19 10:39:36;;;;;;;8.65;5.88;;;;;;;10.45;97.79;101084.53;5073589;28;20055;-64
2023/03/19 10:42:07;;;;;;;8.48;5.80;;;;;;;10.57;99.76;101087.59;5057357;28;20048;-64
2023/03/19 10:44:44;;;;;;;10.10;6.90;;;;;;;10.74;97.75;101082.31;5074526;28;20468;-63
2023/03/19 10:47:13;;;;;;;11.85;7.55;;;;;;;11.04;97.62;101090.78;5071966;28;20052;-63
2023/03/19 10:49:41;;;;;;;12.07;7.20;;;;;;;11.40;96.49;101081.75;5074173;28;20048;-64
2023/03/19 10:52:28;;;;;;;11.82;8.48;;;;;;;11.33;95.08;101094.00;5075805;28;20404;-64
2023/03/19 10:55:01;;;;;;;14.18;9.45;;;;;;;11.30;95.81;101097.38;5077078;28;20056;-64
2023/03/19 10:57:30;;;;;;;14.40;10.18;;;;;;;11.59;97.41;101088.75;5075685;28;20057;-64
2023/03/19 11:00:05;;;;;;;14.27;10.35;;;;;;;11.86;95.81;101077.63;5076927;28;20052;-67
2023/03/19 11:02:32;;;;;;;12.68;9.23;;;;;;;11.55;90.57;101086.91;5074463;28;20384;-63
2023/03/19 11:05:27;;;;;;;14.23;10.45;;;;;;;11.59;91.53;101088.75;5077069;28;20056;-64
2023/03/19 11:08:01;;;;;;;13.52;10.18;;;;;;;11.46;91.10;101078.56;5068546;28;20053;-64
2023/03/19 11:10:30;;;;;;;14.38;9.40;;;;;;;10.98;89.97;101094.75;5039971;28;20052;-65
2023/03/19 11:13:14;;;;;;;13.50;7.90;;;;;;;10.57;89.93;101106.88;5050783;28;20506;-64
2023/03/19 11:15:46;;;;;;;9.32;4.50;;;;;;;10.09;86.97;101117.38;5058530;28;20048;-65
2023/03/19 11:18:26;;;;;;;6.90;3.10;;;;;;;10.19;84.96;101114.44;5074195;28;20056;-65
2023/03/19 11:20:58;;;;;;;5.85;2.33;;;;;;;9.92;82.67;101122.59;5065196;28;20060;-67
2023/03/19 11:23:27;;;;;;;7.22;2.58;;;;;;;9.90;83.73;101120.09;5056097;28;20057;-65
2023/03/19 11:26:00;;;;;;;6.82;2.92;;;;;;;9.86;85.71;101127.34;5059915;28;20059;-64
2023/03/19 11:28:32;;;;;;;6.15;2.30;;;;;;;9.93;84.84;101121.44;5074175;28;20052;-65
2023/03/19 11:31:36;;;;;;;5.70;2.50;;;;;;;9.97;83.45;101108.75;5072677;28;20056;-63
2023/03/19 11:34:21;;;;;;;5.13;2.00;;;;;;;9.93;83.34;101116.78;5021666;28;20044;-66
2023/03/19 11:37:14;;;;;;;5.90;2.42;;;;;;;10.09;84.72;101098.91;5073000;28;20048;-65
2023/03/19 11:39:59;;;;;;;5.57;2.40;;;;;;;10.20;83.77;101100.38;5071179;28;20052;-66